createdAt,value
2022-08-08T00:00:53.738Z,16.41
2022-08-08T00:08:33.425Z,16.37
2022-08-08T00:16:12.495Z,16.32
2022-08-08T00:23:52.684Z,16.23
2022-08-08T00:32:20.427Z,16.11
2022-08-08T00:41:07.609Z,16.04
2022-08-08T00:48:29.086Z,15.94
2022-08-08T00:56:46.273Z,15.80
2022-08-08T01:04:50.814Z,15.74
2022-08-08T01:13:15.140Z,15.66
2022-08-08T01:21:07.307Z,15.59
2022-08-08T01:29:35.578Z,15.53
2022-08-08T01:37:59.994Z,15.46
2022-08-08T01:45:58.343Z,15.40
2022-08-08T01:55:17.134Z,15.31
2022-08-08T02:02:04.971Z,15.30
2022-08-08T02:10:11.693Z,15.18
2022-08-08T02:17:57.594Z,15.11
2022-08-08T02:25:46.856Z,14.99
2022-08-08T02:34:00.243Z,14.90
2022-08-08T02:42:07.854Z,14.86
2022-08-08T02:50:18.204Z,14.81
2022-08-08T02:58:42.274Z,14.76
2022-08-08T03:07:02.420Z,14.64
2022-08-08T03:15:57.395Z,14.60
2022-08-08T03:23:00.616Z,14.55
2022-08-08T03:30:38.361Z,14.51
2022-08-08T03:38:57.942Z,14.42
2022-08-08T03:46:09.701Z,14.33
2022-08-08T03:53:47.739Z,14.35
2022-08-08T04:01:24.515Z,14.37
2022-08-08T04:09:10.595Z,14.32
2022-08-08T04:16:49.184Z,14.28
2022-08-08T04:24:29.642Z,14.25
2022-08-08T04:32:06.826Z,14.24
2022-08-08T04:40:05.418Z,14.29
2022-08-08T04:47:46.121Z,14.37
2022-08-08T04:55:22.129Z,14.48
2022-08-08T05:02:56.828Z,14.55
2022-08-08T05:10:32.951Z,14.67
2022-08-08T05:18:07.105Z,14.71
2022-08-08T05:25:43.234Z,14.82
2022-08-08T05:33:17.837Z,14.98
2022-08-08T05:40:58.174Z,15.20
2022-08-08T05:48:34.633Z,15.59
2022-08-08T05:56:15.218Z,15.84
2022-08-08T06:03:53.673Z,16.17
2022-08-08T06:11:33.212Z,16.44
2022-08-08T06:19:16.197Z,16.65
2022-08-08T06:26:58.963Z,16.85
2022-08-08T06:34:40.273Z,17.05
2022-08-08T06:42:16.474Z,17.30
2022-08-08T06:49:56.667Z,17.54
2022-08-08T06:57:54.722Z,17.79
2022-08-08T07:05:29.857Z,18.14
2022-08-08T07:13:18.725Z,18.42
2022-08-08T07:20:56.004Z,18.68
2022-08-08T07:28:34.283Z,18.95
2022-08-08T07:36:10.499Z,19.24
2022-08-08T07:43:53.496Z,19.71
2022-08-08T07:51:53.258Z,20.05
2022-08-08T07:59:27.942Z,21.17
2022-08-08T08:07:12.545Z,21.32
2022-08-08T08:14:55.739Z,21.49
2022-08-08T08:22:31.336Z,21.85
2022-08-08T08:30:10.369Z,22.36
2022-08-08T08:38:13.000Z,22.95
2022-08-08T08:45:40.679Z,23.62
2022-08-08T08:53:54.991Z,23.61
2022-08-08T09:01:14.934Z,24.50
2022-08-08T09:08:55.186Z,25.46
2022-08-08T09:16:32.842Z,25.41
2022-08-08T09:24:07.313Z,25.09
2022-08-08T09:31:56.035Z,24.92
2022-08-08T09:39:36.775Z,25.76
2022-08-08T09:47:26.501Z,26.19
2022-08-08T09:55:09.470Z,26.75
2022-08-08T10:02:54.145Z,26.61
2022-08-08T10:10:30.302Z,26.38
2022-08-08T10:18:13.096Z,26.35
2022-08-08T10:25:57.201Z,25.97
2022-08-08T10:33:38.593Z,25.75
2022-08-08T10:41:35.419Z,25.39
2022-08-08T10:50:02.278Z,25.44
2022-08-08T10:57:27.558Z,25.70
2022-08-08T11:05:18.116Z,25.80
2022-08-08T11:13:18.703Z,25.46
2022-08-08T11:20:52.228Z,25.96
2022-08-08T11:28:29.569Z,26.02
2022-08-08T11:36:07.059Z,25.79
2022-08-08T11:43:43.529Z,25.73
2022-08-08T11:51:37.959Z,25.84
2022-08-08T11:59:14.381Z,25.71
2022-08-08T12:06:49.658Z,25.67
2022-08-08T12:14:24.122Z,25.99
2022-08-08T12:22:13.504Z,26.17
2022-08-08T12:30:02.053Z,26.15
2022-08-08T12:37:40.802Z,26.31
2022-08-08T12:45:58.543Z,26.57
2022-08-08T12:53:24.685Z,26.32
2022-08-08T13:01:11.055Z,26.12
2022-08-08T13:08:53.155Z,26.18
2022-08-08T13:16:30.005Z,26.19
2022-08-08T13:24:07.925Z,26.46
2022-08-08T13:31:53.401Z,26.64
2022-08-08T13:39:28.651Z,26.61
2022-08-08T13:47:05.016Z,26.77
2022-08-08T13:54:49.434Z,26.62
2022-08-08T14:02:30.955Z,26.79
2022-08-08T14:10:11.773Z,26.95
2022-08-08T14:17:58.489Z,27.18
2022-08-08T14:25:46.735Z,27.68
2022-08-08T14:33:36.578Z,28.20
2022-08-08T14:41:17.718Z,28.15
2022-08-08T14:49:31.881Z,28.33
2022-08-08T14:57:08.858Z,28.45
2022-08-08T15:04:45.593Z,28.41
2022-08-08T15:12:36.572Z,28.10
2022-08-08T15:20:14.162Z,28.36
2022-08-08T15:28:05.184Z,28.20
2022-08-08T15:35:43.395Z,28.04
2022-08-08T15:43:35.728Z,28.17
2022-08-08T15:51:11.646Z,27.57
2022-08-08T15:58:50.704Z,27.76
2022-08-08T16:06:28.774Z,27.37
2022-08-08T16:14:11.388Z,27.17
2022-08-08T16:21:54.076Z,26.88
2022-08-08T16:29:37.352Z,26.67
2022-08-08T16:37:27.859Z,26.48
2022-08-08T16:45:11.461Z,26.36
2022-08-08T16:55:05.812Z,26.27
2022-08-08T17:00:52.941Z,26.08
2022-08-08T17:08:27.171Z,25.96
2022-08-08T17:16:02.356Z,25.82
2022-08-08T17:24:01.437Z,25.73
2022-08-08T17:31:45.142Z,25.59
2022-08-08T17:39:46.056Z,25.54
2022-08-08T17:47:23.172Z,25.50
2022-08-08T17:54:58.654Z,25.44
2022-08-08T18:02:33.974Z,25.38
2022-08-08T18:10:10.218Z,25.25
2022-08-08T18:18:08.951Z,25.06
2022-08-08T18:25:39.684Z,24.90
2022-08-08T18:33:36.620Z,24.76
2022-08-08T18:41:10.143Z,24.57
2022-08-08T18:48:45.508Z,24.40
2022-08-08T18:56:22.992Z,24.23
2022-08-08T19:04:09.908Z,23.96
2022-08-08T19:11:46.243Z,23.60
2022-08-08T19:19:22.134Z,23.52
2022-08-08T19:26:57.889Z,23.43
2022-08-08T19:34:38.767Z,23.31
2022-08-08T19:42:15.467Z,23.14
2022-08-08T19:49:59.734Z,23.08
2022-08-08T19:57:35.510Z,22.96
2022-08-08T20:05:12.113Z,22.86
2022-08-08T20:12:59.140Z,22.75
2022-08-08T20:20:42.490Z,22.64
2022-08-08T20:28:17.486Z,22.50
2022-08-08T20:35:58.585Z,22.39
2022-08-08T20:43:43.629Z,22.21
2022-08-08T20:51:23.640Z,21.89
2022-08-08T20:58:58.989Z,21.77
2022-08-08T21:06:52.714Z,21.73
2022-08-08T21:14:33.499Z,21.67
2022-08-08T21:22:09.658Z,21.57
2022-08-08T21:30:03.698Z,21.52
2022-08-08T21:37:54.329Z,21.34
2022-08-08T21:47:59.658Z,21.31
2022-08-08T21:54:32.000Z,21.25
2022-08-08T22:01:22.446Z,21.11
2022-08-08T22:09:08.409Z,20.95
2022-08-08T22:16:42.732Z,20.92
2022-08-08T22:24:18.016Z,20.87
2022-08-08T22:32:03.513Z,20.80
2022-08-08T22:39:45.560Z,20.66
2022-08-08T22:47:36.538Z,20.60
2022-08-08T22:55:14.316Z,20.56
2022-08-08T23:02:51.247Z,20.52
2022-08-08T23:10:27.645Z,20.43
2022-08-08T23:18:01.490Z,20.45
2022-08-08T23:25:48.290Z,20.47
2022-08-08T23:34:15.976Z,20.43
2022-08-08T23:41:24.570Z,20.33
2022-08-08T23:49:18.102Z,20.23
2022-08-08T23:56:54.249Z,20.16
